sensor_id;sensor_type;location;lat;lon;timestamp;P1;durP1;ratioP1;P2;durP2;ratioP2
6955;SDS011;50345;51.136;16.886;2024-02-21T00:01:44;24.00;;;16.17;;
6955;SDS011;50345;51.136;16.886;2024-02-21T00:04:09;19.73;;;14.57;;
6955;SDS011;50345;51.136;16.886;2024-02-21T00:06:35;18.60;;;14.27;;
6955;SDS011;50345;51.136;16.886;2024-02-21T00:09:01;17.20;;;11.20;;
6955;SDS011;50345;51.136;16.886;2024-02-21T00:11:26;13.73;;;6.00;;
6955;SDS011;50345;51.136;16.886;2024-02-21T00:13:53;15.00;;;6.32;;
6955;SDS011;50345;51.136;16.886;2024-02-21T00:16:18;10.30;;;5.13;;
6955;SDS011;50345;51.136;16.886;2024-02-21T00:18:44;10.90;;;5.93;;
6955;SDS011;50345;51.136;16.886;2024-02-21T00:21:10;8.90;;;5.00;;
6955;SDS011;50345;51.136;16.886;2024-02-21T00:23:40;17.02;;;7.28;;
6955;SDS011;50345;51.136;16.886;2024-02-21T00:26:06;12.85;;;8.43;;
6955;SDS011;50345;51.136;16.886;2024-02-21T00:28:32;13.45;;;8.70;;
6955;SDS011;50345;51.136;16.886;2024-02-21T00:30:58;24.20;;;14.03;;
6955;SDS011;50345;51.136;16.886;2024-02-21T00:33:23;17.67;;;11.00;;
6955;SDS011;50345;51.136;16.886;2024-02-21T00:35:49;26.03;;;13.40;;
6955;SDS011;50345;51.136;16.886;2024-02-21T00:38:15;25.90;;;17.03;;
6955;SDS011;50345;51.136;16.886;2024-02-21T00:40:40;28.87;;;16.20;;
6955;SDS011;50345;51.136;16.886;2024-02-21T00:43:06;23.67;;;17.90;;
6955;SDS011;50345;51.136;16.886;2024-02-21T00:45:32;18.10;;;16.00;;
6955;SDS011;50345;51.136;16.886;2024-02-21T00:47:58;32.20;;;22.03;;
6955;SDS011;50345;51.136;16.886;2024-02-21T00:50:23;26.43;;;21.47;;
6955;SDS011;50345;51.136;16.886;2024-02-21T00:52:49;27.27;;;20.67;;
6955;SDS011;50345;51.136;16.886;2024-02-21T00:55:15;29.27;;;20.40;;
6955;SDS011;50345;51.136;16.886;2024-02-21T00:57:40;27.70;;;20.77;;
6955;SDS011;50345;51.136;16.886;2024-02-21T01:00:06;27.30;;;19.93;;
6955;SDS011;50345;51.136;16.886;2024-02-21T01:02:33;34.95;;;21.73;;
6955;SDS011;50345;51.136;16.886;2024-02-21T01:04:58;27.50;;;23.80;;
6955;SDS011;50345;51.136;16.886;2024-02-21T01:07:24;37.30;;;24.37;;
6955;SDS011;50345;51.136;16.886;2024-02-21T01:09:50;50.43;;;28.10;;
6955;SDS011;50345;51.136;16.886;2024-02-21T01:12:18;38.33;;;29.23;;
6955;SDS011;50345;51.136;16.886;2024-02-21T01:14:44;46.40;;;31.50;;
6955;SDS011;50345;51.136;16.886;2024-02-21T01:17:11;54.00;;;26.80;;
6955;SDS011;50345;51.136;16.886;2024-02-21T01:19:37;38.30;;;22.40;;
6955;SDS011;50345;51.136;16.886;2024-02-21T01:22:03;41.80;;;24.27;;
6955;SDS011;50345;51.136;16.886;2024-02-21T01:24:29;39.40;;;22.40;;
6955;SDS011;50345;51.136;16.886;2024-02-21T01:26:54;36.60;;;23.60;;
6955;SDS011;50345;51.136;16.886;2024-02-21T01:29:20;38.97;;;20.50;;
6955;SDS011;50345;51.136;16.886;2024-02-21T01:31:46;34.23;;;21.53;;
6955;SDS011;50345;51.136;16.886;2024-02-21T01:34:12;47.40;;;25.65;;
6955;SDS011;50345;51.136;16.886;2024-02-21T01:36:38;28.52;;;18.88;;
6955;SDS011;50345;51.136;16.886;2024-02-21T01:39:03;20.47;;;14.83;;
6955;SDS011;50345;51.136;16.886;2024-02-21T01:41:30;19.70;;;12.57;;
6955;SDS011;50345;51.136;16.886;2024-02-21T01:43:56;15.48;;;9.55;;
6955;SDS011;50345;51.136;16.886;2024-02-21T01:46:22;11.20;;;4.80;;
6955;SDS011;50345;51.136;16.886;2024-02-21T01:48:48;10.25;;;4.60;;
6955;SDS011;50345;51.136;16.886;2024-02-21T01:51:13;11.67;;;5.00;;
6955;SDS011;50345;51.136;16.886;2024-02-21T01:53:42;12.95;;;5.03;;
6955;SDS011;50345;51.136;16.886;2024-02-21T01:56:09;8.45;;;4.80;;
6955;SDS011;50345;51.136;16.886;2024-02-21T01:58:36;15.05;;;5.05;;
6955;SDS011;50345;51.136;16.886;2024-02-21T02:01:04;12.75;;;5.68;;
6955;SDS011;50345;51.136;16.886;2024-02-21T02:03:29;12.70;;;5.47;;
6955;SDS011;50345;51.136;16.886;2024-02-21T02:05:56;12.02;;;5.53;;
6955;SDS011;50345;51.136;16.886;2024-02-21T02:08:21;10.83;;;4.60;;
6955;SDS011;50345;51.136;16.886;2024-02-21T02:10:47;10.38;;;6.25;;
6955;SDS011;50345;51.136;16.886;2024-02-21T02:13:13;11.27;;;4.80;;
6955;SDS011;50345;51.136;16.886;2024-02-21T02:15:46;8.38;;;5.22;;
6955;SDS011;50345;51.136;16.886;2024-02-21T02:18:12;15.05;;;6.85;;
6955;SDS011;50345;51.136;16.886;2024-02-21T02:20:39;13.65;;;7.20;;
6955;SDS011;50345;51.136;16.886;2024-02-21T02:23:12;9.80;;;6.55;;
6955;SDS011;50345;51.136;16.886;2024-02-21T02:25:42;7.30;;;5.63;;
6955;SDS011;50345;51.136;16.886;2024-02-21T02:28:08;6.97;;;5.95;;
6955;SDS011;50345;51.136;16.886;2024-02-21T02:30:37;9.30;;;5.67;;
6955;SDS011;50345;51.136;16.886;2024-02-21T02:33:03;8.23;;;5.30;;
6955;SDS011;50345;51.136;16.886;2024-02-21T02:35:29;13.32;;;6.07;;
6955;SDS011;50345;51.136;16.886;2024-02-21T02:37:55;10.82;;;6.85;;
6955;SDS011;50345;51.136;16.886;2024-02-21T02:40:21;11.40;;;6.27;;
6955;SDS011;50345;51.136;16.886;2024-02-21T02:42:46;16.77;;;5.57;;
6955;SDS011;50345;51.136;16.886;2024-02-21T02:45:14;5.93;;;4.60;;
6955;SDS011;50345;51.136;16.886;2024-02-21T02:47:40;10.88;;;5.70;;
6955;SDS011;50345;51.136;16.886;2024-02-21T02:50:06;10.57;;;4.60;;
6955;SDS011;50345;51.136;16.886;2024-02-21T02:52:32;14.82;;;4.85;;
6955;SDS011;50345;51.136;16.886;2024-02-21T02:54:58;10.93;;;5.30;;
6955;SDS011;50345;51.136;16.886;2024-02-21T02:57:24;10.23;;;5.27;;
6955;SDS011;50345;51.136;16.886;2024-02-21T02:59:50;9.93;;;6.00;;
6955;SDS011;50345;51.136;16.886;2024-02-21T03:02:16;8.38;;;4.10;;
6955;SDS011;50345;51.136;16.886;2024-02-21T03:04:42;9.30;;;4.75;;
6955;SDS011;50345;51.136;16.886;2024-02-21T03:07:11;14.13;;;5.30;;
6955;SDS011;50345;51.136;16.886;2024-02-21T03:09:37;8.50;;;6.40;;
6955;SDS011;50345;51.136;16.886;2024-02-21T03:12:03;14.65;;;5.38;;
6955;SDS011;50345;51.136;16.886;2024-02-21T03:14:29;13.88;;;7.75;;
6955;SDS011;50345;51.136;16.886;2024-02-21T03:16:55;13.63;;;4.70;;
6955;SDS011;50345;51.136;16.886;2024-02-21T03:19:21;8.23;;;5.55;;
6955;SDS011;50345;51.136;16.886;2024-02-21T03:21:47;8.67;;;7.23;;
6955;SDS011;50345;51.136;16.886;2024-02-21T03:24:14;8.95;;;6.68;;
6955;SDS011;50345;51.136;16.886;2024-02-21T03:26:41;10.45;;;5.65;;
6955;SDS011;50345;51.136;16.886;2024-02-21T03:29:06;9.30;;;5.43;;
6955;SDS011;50345;51.136;16.886;2024-02-21T03:31:33;11.15;;;5.65;;
6955;SDS011;50345;51.136;16.886;2024-02-21T03:33:59;8.13;;;5.35;;
6955;SDS011;50345;51.136;16.886;2024-02-21T03:36:25;11.20;;;5.50;;
6955;SDS011;50345;51.136;16.886;2024-02-21T03:38:51;7.30;;;5.17;;
6955;SDS011;50345;51.136;16.886;2024-02-21T03:41:16;13.03;;;5.40;;
6955;SDS011;50345;51.136;16.886;2024-02-21T03:43:42;14.83;;;5.33;;
6955;SDS011;50345;51.136;16.886;2024-02-21T03:46:08;14.60;;;5.97;;
6955;SDS011;50345;51.136;16.886;2024-02-21T03:48:33;12.30;;;5.23;;
6955;SDS011;50345;51.136;16.886;2024-02-21T03:50:59;13.57;;;5.40;;
6955;SDS011;50345;51.136;16.886;2024-02-21T03:53:24;7.33;;;5.03;;
6955;SDS011;50345;51.136;16.886;2024-02-21T03:55:50;9.37;;;4.80;;
6955;SDS011;50345;51.136;16.886;2024-02-21T03:58:16;10.03;;;5.00;;
6955;SDS011;50345;51.136;16.886;2024-02-21T04:00:41;8.27;;;4.40;;
6955;SDS011;50345;51.136;16.886;2024-02-21T04:03:07;10.20;;;5.43;;
6955;SDS011;50345;51.136;16.886;2024-02-21T04:05:32;11.00;;;5.20;;
6955;SDS011;50345;51.136;16.886;2024-02-21T04:07:58;7.63;;;4.47;;
6955;SDS011;50345;51.136;16.886;2024-02-21T04:10:24;9.03;;;4.70;;
6955;SDS011;50345;51.136;16.886;2024-02-21T04:12:49;7.27;;;5.10;;
6955;SDS011;50345;51.136;16.886;2024-02-21T04:15:16;9.40;;;4.57;;
6955;SDS011;50345;51.136;16.886;2024-02-21T04:17:41;8.32;;;4.13;;
6955;SDS011;50345;51.136;16.886;2024-02-21T04:20:13;7.83;;;5.33;;
6955;SDS011;50345;51.136;16.886;2024-02-21T04:22:40;11.02;;;4.68;;
6955;SDS011;50345;51.136;16.886;2024-02-21T04:25:06;6.53;;;4.60;;
6955;SDS011;50345;51.136;16.886;2024-02-21T04:27:32;8.95;;;5.50;;
6955;SDS011;50345;51.136;16.886;2024-02-21T04:29:57;12.00;;;5.50;;
6955;SDS011;50345;51.136;16.886;2024-02-21T04:32:23;10.20;;;5.43;;
6955;SDS011;50345;51.136;16.886;2024-02-21T04:34:48;7.93;;;4.80;;
6955;SDS011;50345;51.136;16.886;2024-02-21T04:37:14;11.63;;;6.10;;
6955;SDS011;50345;51.136;16.886;2024-02-21T04:39:40;9.13;;;7.25;;
6955;SDS011;50345;51.136;16.886;2024-02-21T04:42:06;9.23;;;5.90;;
6955;SDS011;50345;51.136;16.886;2024-02-21T04:44:31;14.53;;;10.60;;
6955;SDS011;50345;51.136;16.886;2024-02-21T04:46:57;11.33;;;8.80;;
6955;SDS011;50345;51.136;16.886;2024-02-21T04:49:22;9.10;;;6.17;;
6955;SDS011;50345;51.136;16.886;2024-02-21T04:51:48;7.83;;;5.40;;
6955;SDS011;50345;51.136;16.886;2024-02-21T04:54:14;9.90;;;6.53;;
6955;SDS011;50345;51.136;16.886;2024-02-21T04:56:39;11.67;;;6.03;;
6955;SDS011;50345;51.136;16.886;2024-02-21T04:59:05;8.53;;;6.00;;
6955;SDS011;50345;51.136;16.886;2024-02-21T05:01:30;9.10;;;5.23;;
6955;SDS011;50345;51.136;16.886;2024-02-21T05:03:56;6.90;;;5.20;;
6955;SDS011;50345;51.136;16.886;2024-02-21T05:06:21;9.70;;;6.60;;
6955;SDS011;50345;51.136;16.886;2024-02-21T05:08:47;15.37;;;6.17;;
6955;SDS011;50345;51.136;16.886;2024-02-21T05:11:13;7.27;;;5.57;;
6955;SDS011;50345;51.136;16.886;2024-02-21T05:13:39;15.27;;;7.05;;
6955;SDS011;50345;51.136;16.886;2024-02-21T05:16:05;10.03;;;6.53;;
6955;SDS011;50345;51.136;16.886;2024-02-21T05:18:31;9.02;;;7.07;;
6955;SDS011;50345;51.136;16.886;2024-02-21T05:20:57;11.52;;;7.38;;
6955;SDS011;50345;51.136;16.886;2024-02-21T05:23:24;9.20;;;5.82;;
6955;SDS011;50345;51.136;16.886;2024-02-21T05:25:49;11.10;;;6.23;;
6955;SDS011;50345;51.136;16.886;2024-02-21T05:28:16;7.60;;;5.50;;
6955;SDS011;50345;51.136;16.886;2024-02-21T05:30:42;9.23;;;5.40;;
6955;SDS011;50345;51.136;16.886;2024-02-21T05:33:08;7.80;;;5.10;;
6955;SDS011;50345;51.136;16.886;2024-02-21T05:35:34;6.17;;;4.70;;
6955;SDS011;50345;51.136;16.886;2024-02-21T05:38:01;10.77;;;4.47;;
6955;SDS011;50345;51.136;16.886;2024-02-21T05:40:29;9.75;;;4.75;;
6955;SDS011;50345;51.136;16.886;2024-02-21T05:42:54;10.57;;;4.77;;
6955;SDS011;50345;51.136;16.886;2024-02-21T05:45:20;6.90;;;4.00;;
6955;SDS011;50345;51.136;16.886;2024-02-21T05:47:46;6.10;;;4.23;;
6955;SDS011;50345;51.136;16.886;2024-02-21T05:50:11;4.40;;;4.00;;
6955;SDS011;50345;51.136;16.886;2024-02-21T05:52:37;18.63;;;10.07;;
6955;SDS011;50345;51.136;16.886;2024-02-21T05:55:02;5.47;;;4.67;;
6955;SDS011;50345;51.136;16.886;2024-02-21T05:57:28;12.63;;;5.90;;
6955;SDS011;50345;51.136;16.886;2024-02-21T05:59:54;7.40;;;5.50;;
6955;SDS011;50345;51.136;16.886;2024-02-21T06:02:19;11.33;;;5.83;;
6955;SDS011;50345;51.136;16.886;2024-02-21T06:04:45;9.60;;;5.57;;
6955;SDS011;50345;51.136;16.886;2024-02-21T06:07:11;6.28;;;4.80;;
6955;SDS011;50345;51.136;16.886;2024-02-21T06:09:37;12.23;;;5.37;;
6955;SDS011;50345;51.136;16.886;2024-02-21T06:12:02;6.10;;;4.80;;
6955;SDS011;50345;51.136;16.886;2024-02-21T06:14:28;6.27;;;3.83;;
6955;SDS011;50345;51.136;16.886;2024-02-21T06:16:54;6.20;;;4.27;;
6955;SDS011;50345;51.136;16.886;2024-02-21T06:19:19;6.60;;;4.33;;
6955;SDS011;50345;51.136;16.886;2024-02-21T06:21:45;8.33;;;5.00;;
6955;SDS011;50345;51.136;16.886;2024-02-21T06:24:10;9.13;;;5.47;;
6955;SDS011;50345;51.136;16.886;2024-02-21T06:26:37;8.15;;;4.95;;
6955;SDS011;50345;51.136;16.886;2024-02-21T06:29:05;10.82;;;5.70;;
6955;SDS011;50345;51.136;16.886;2024-02-21T06:31:30;14.10;;;5.70;;
6955;SDS011;50345;51.136;16.886;2024-02-21T06:33:56;11.90;;;5.57;;
6955;SDS011;50345;51.136;16.886;2024-02-21T06:36:22;10.10;;;7.13;;
6955;SDS011;50345;51.136;16.886;2024-02-21T06:38:48;8.07;;;6.33;;
6955;SDS011;50345;51.136;16.886;2024-02-21T06:41:14;9.60;;;5.70;;
6955;SDS011;50345;51.136;16.886;2024-02-21T06:43:40;7.43;;;6.35;;
6955;SDS011;50345;51.136;16.886;2024-02-21T06:46:06;12.40;;;5.73;;
6955;SDS011;50345;51.136;16.886;2024-02-21T06:48:31;11.53;;;6.43;;
6955;SDS011;50345;51.136;16.886;2024-02-21T06:50:57;8.97;;;5.60;;
6955;SDS011;50345;51.136;16.886;2024-02-21T06:53:23;8.30;;;5.80;;
6955;SDS011;50345;51.136;16.886;2024-02-21T06:55:48;8.57;;;5.30;;
6955;SDS011;50345;51.136;16.886;2024-02-21T06:58:14;9.63;;;5.77;;
6955;SDS011;50345;51.136;16.886;2024-02-21T07:00:42;5.53;;;4.60;;
6955;SDS011;50345;51.136;16.886;2024-02-21T07:03:07;10.97;;;7.73;;
6955;SDS011;50345;51.136;16.886;2024-02-21T07:05:33;6.67;;;5.20;;
6955;SDS011;50345;51.136;16.886;2024-02-21T07:07:59;9.00;;;4.97;;
6955;SDS011;50345;51.136;16.886;2024-02-21T07:10:24;8.10;;;5.50;;
6955;SDS011;50345;51.136;16.886;2024-02-21T07:12:50;10.23;;;6.03;;
6955;SDS011;50345;51.136;16.886;2024-02-21T07:15:17;9.20;;;5.55;;
6955;SDS011;50345;51.136;16.886;2024-02-21T07:17:43;11.40;;;5.93;;
6955;SDS011;50345;51.136;16.886;2024-02-21T07:20:09;9.93;;;5.83;;
6955;SDS011;50345;51.136;16.886;2024-02-21T07:22:34;10.10;;;6.60;;
6955;SDS011;50345;51.136;16.886;2024-02-21T07:25:00;10.83;;;6.60;;
6955;SDS011;50345;51.136;16.886;2024-02-21T07:27:25;8.30;;;5.80;;
6955;SDS011;50345;51.136;16.886;2024-02-21T07:29:55;8.73;;;5.70;;
6955;SDS011;50345;51.136;16.886;2024-02-21T07:32:21;10.73;;;6.10;;
6955;SDS011;50345;51.136;16.886;2024-02-21T07:34:46;10.03;;;6.13;;
6955;SDS011;50345;51.136;16.886;2024-02-21T07:37:12;15.53;;;7.63;;
6955;SDS011;50345;51.136;16.886;2024-02-21T07:39:38;11.60;;;7.77;;
6955;SDS011;50345;51.136;16.886;2024-02-21T07:42:03;11.97;;;6.53;;
6955;SDS011;50345;51.136;16.886;2024-02-21T07:44:29;9.33;;;6.60;;
6955;SDS011;50345;51.136;16.886;2024-02-21T07:46:57;9.32;;;6.28;;
6955;SDS011;50345;51.136;16.886;2024-02-21T07:49:23;15.20;;;7.27;;
6955;SDS011;50345;51.136;16.886;2024-02-21T07:51:49;10.80;;;6.90;;
6955;SDS011;50345;51.136;16.886;2024-02-21T07:54:15;13.50;;;7.03;;
6955;SDS011;50345;51.136;16.886;2024-02-21T07:56:40;14.33;;;7.53;;
6955;SDS011;50345;51.136;16.886;2024-02-21T07:59:06;9.70;;;6.03;;
6955;SDS011;50345;51.136;16.886;2024-02-21T08:01:32;10.75;;;6.82;;
6955;SDS011;50345;51.136;16.886;2024-02-21T08:03:58;11.13;;;6.77;;
6955;SDS011;50345;51.136;16.886;2024-02-21T08:06:24;12.88;;;7.50;;
6955;SDS011;50345;51.136;16.886;2024-02-21T08:08:50;9.40;;;6.80;;
6955;SDS011;50345;51.136;16.886;2024-02-21T08:11:16;16.40;;;8.13;;
6955;SDS011;50345;51.136;16.886;2024-02-21T08:13:41;13.63;;;8.33;;
6955;SDS011;50345;51.136;16.886;2024-02-21T08:16:07;12.30;;;6.60;;
6955;SDS011;50345;51.136;16.886;2024-02-21T08:18:32;23.13;;;8.37;;
6955;SDS011;50345;51.136;16.886;2024-02-21T08:21:01;9.35;;;5.57;;
6955;SDS011;50345;51.136;16.886;2024-02-21T08:23:28;11.35;;;6.45;;
6955;SDS011;50345;51.136;16.886;2024-02-21T08:25:53;9.57;;;7.10;;
6955;SDS011;50345;51.136;16.886;2024-02-21T08:28:19;13.20;;;7.97;;
6955;SDS011;50345;51.136;16.886;2024-02-21T08:30:45;12.40;;;7.20;;
6955;SDS011;50345;51.136;16.886;2024-02-21T08:33:13;7.30;;;6.60;;
6955;SDS011;50345;51.136;16.886;2024-02-21T08:35:39;8.90;;;6.32;;
6955;SDS011;50345;51.136;16.886;2024-02-21T08:38:05;13.07;;;6.90;;
6955;SDS011;50345;51.136;16.886;2024-02-21T08:40:30;10.47;;;7.77;;
6955;SDS011;50345;51.136;16.886;2024-02-21T08:42:56;17.90;;;7.77;;
6955;SDS011;50345;51.136;16.886;2024-02-21T08:45:21;15.20;;;7.20;;
6955;SDS011;50345;51.136;16.886;2024-02-21T08:47:47;13.43;;;6.03;;
6955;SDS011;50345;51.136;16.886;2024-02-21T08:50:13;12.43;;;6.53;;
6955;SDS011;50345;51.136;16.886;2024-02-21T08:52:39;14.05;;;6.72;;
6955;SDS011;50345;51.136;16.886;2024-02-21T08:55:05;9.97;;;7.40;;
6955;SDS011;50345;51.136;16.886;2024-02-21T08:57:31;16.73;;;6.78;;
6955;SDS011;50345;51.136;16.886;2024-02-21T09:00:02;12.52;;;6.88;;
6955;SDS011;50345;51.136;16.886;2024-02-21T09:02:43;12.93;;;6.80;;
6955;SDS011;50345;51.136;16.886;2024-02-21T09:05:09;10.88;;;6.00;;
6955;SDS011;50345;51.136;16.886;2024-02-21T09:07:35;9.93;;;7.10;;
6955;SDS011;50345;51.136;16.886;2024-02-21T09:10:00;15.87;;;7.63;;
6955;SDS011;50345;51.136;16.886;2024-02-21T09:12:26;12.10;;;6.30;;
6955;SDS011;50345;51.136;16.886;2024-02-21T09:14:52;8.70;;;6.90;;
6955;SDS011;50345;51.136;16.886;2024-02-21T09:17:18;16.57;;;7.53;;
6955;SDS011;50345;51.136;16.886;2024-02-21T09:19:45;11.88;;;7.05;;
6955;SDS011;50345;51.136;16.886;2024-02-21T09:22:11;16.05;;;7.95;;
6955;SDS011;50345;51.136;16.886;2024-02-21T09:24:37;16.43;;;8.30;;
6955;SDS011;50345;51.136;16.886;2024-02-21T09:27:03;14.13;;;7.77;;
6955;SDS011;50345;51.136;16.886;2024-02-21T09:29:28;13.70;;;8.37;;
6955;SDS011;50345;51.136;16.886;2024-02-21T09:31:54;15.80;;;7.93;;
6955;SDS011;50345;51.136;16.886;2024-02-21T09:34:20;12.53;;;8.03;;
6955;SDS011;50345;51.136;16.886;2024-02-21T09:36:45;14.53;;;8.37;;
6955;SDS011;50345;51.136;16.886;2024-02-21T09:39:11;19.77;;;7.90;;
6955;SDS011;50345;51.136;16.886;2024-02-21T09:41:40;11.85;;;8.10;;
6955;SDS011;50345;51.136;16.886;2024-02-21T09:44:13;14.88;;;9.20;;
6955;SDS011;50345;51.136;16.886;2024-02-21T09:49:34;15.52;;;6.38;;
6955;SDS011;50345;51.136;16.886;2024-02-21T09:52:04;14.40;;;7.55;;
6955;SDS011;50345;51.136;16.886;2024-02-21T09:54:32;17.15;;;7.90;;
6955;SDS011;50345;51.136;16.886;2024-02-21T09:57:01;16.08;;;7.10;;
6955;SDS011;50345;51.136;16.886;2024-02-21T09:59:28;11.23;;;8.40;;
6955;SDS011;50345;51.136;16.886;2024-02-21T10:01:56;16.50;;;7.35;;
6955;SDS011;50345;51.136;16.886;2024-02-21T10:04:22;15.27;;;7.53;;
6955;SDS011;50345;51.136;16.886;2024-02-21T10:06:48;11.10;;;6.25;;
6955;SDS011;50345;51.136;16.886;2024-02-21T10:09:24;12.70;;;6.63;;
6955;SDS011;50345;51.136;16.886;2024-02-21T10:11:53;11.57;;;6.65;;
6955;SDS011;50345;51.136;16.886;2024-02-21T10:14:19;14.15;;;7.35;;
6955;SDS011;50345;51.136;16.886;2024-02-21T10:16:48;17.97;;;9.27;;
6955;SDS011;50345;51.136;16.886;2024-02-21T10:19:21;17.38;;;8.65;;
6955;SDS011;50345;51.136;16.886;2024-02-21T10:22:08;12.93;;;7.53;;
6955;SDS011;50345;51.136;16.886;2024-02-21T10:24:34;12.82;;;7.00;;
6955;SDS011;50345;51.136;16.886;2024-02-21T10:27:02;15.20;;;7.20;;
6955;SDS011;50345;51.136;16.886;2024-02-21T10:29:38;10.40;;;7.13;;
6955;SDS011;50345;51.136;16.886;2024-02-21T10:32:08;14.57;;;7.47;;
6955;SDS011;50345;51.136;16.886;2024-02-21T10:34:38;14.15;;;7.78;;
6955;SDS011;50345;51.136;16.886;2024-02-21T10:37:08;10.63;;;7.55;;
6955;SDS011;50345;51.136;16.886;2024-02-21T10:39:38;11.75;;;7.25;;
6955;SDS011;50345;51.136;16.886;2024-02-21T10:42:05;12.43;;;7.63;;
6955;SDS011;50345;51.136;16.886;2024-02-21T10:44:31;11.90;;;7.60;;
6955;SDS011;50345;51.136;16.886;2024-02-21T10:46:58;9.23;;;6.53;;
6955;SDS011;50345;51.136;16.886;2024-02-21T10:49:25;15.05;;;7.25;;
6955;SDS011;50345;51.136;16.886;2024-02-21T10:51:54;10.60;;;6.85;;
6955;SDS011;50345;51.136;16.886;2024-02-21T10:54:39;10.38;;;6.47;;
6955;SDS011;50345;51.136;16.886;2024-02-21T10:57:21;9.38;;;6.63;;
6955;SDS011;50345;51.136;16.886;2024-02-21T10:59:48;9.38;;;6.05;;
6955;SDS011;50345;51.136;16.886;2024-02-21T11:02:15;9.75;;;6.55;;
6955;SDS011;50345;51.136;16.886;2024-02-21T11:04:41;13.63;;;7.03;;
6955;SDS011;50345;51.136;16.886;2024-02-21T11:07:08;10.48;;;5.88;;
6955;SDS011;50345;51.136;16.886;2024-02-21T11:09:34;6.85;;;6.03;;
6955;SDS011;50345;51.136;16.886;2024-02-21T11:12:01;10.43;;;6.50;;
6955;SDS011;50345;51.136;16.886;2024-02-21T11:14:29;7.05;;;5.88;;
6955;SDS011;50345;51.136;16.886;2024-02-21T11:16:57;9.77;;;5.63;;
6955;SDS011;50345;51.136;16.886;2024-02-21T11:19:27;9.15;;;5.60;;
6955;SDS011;50345;51.136;16.886;2024-02-21T11:21:57;7.88;;;5.70;;
6955;SDS011;50345;51.136;16.886;2024-02-21T11:26:52;8.43;;;5.50;;
6955;SDS011;50345;51.136;16.886;2024-02-21T11:29:24;7.90;;;5.87;;
6955;SDS011;50345;51.136;16.886;2024-02-21T11:31:51;12.85;;;5.85;;
6955;SDS011;50345;51.136;16.886;2024-02-21T11:34:17;12.77;;;6.35;;
6955;SDS011;50345;51.136;16.886;2024-02-21T11:36:51;8.68;;;6.47;;
6955;SDS011;50345;51.136;16.886;2024-02-21T11:39:18;6.03;;;5.43;;
6955;SDS011;50345;51.136;16.886;2024-02-21T11:41:44;10.05;;;5.97;;
6955;SDS011;50345;51.136;16.886;2024-02-21T11:44:10;8.10;;;6.40;;
6955;SDS011;50345;51.136;16.886;2024-02-21T11:46:35;10.00;;;6.30;;
6955;SDS011;50345;51.136;16.886;2024-02-21T11:49:01;6.60;;;5.40;;
6955;SDS011;50345;51.136;16.886;2024-02-21T11:51:28;9.13;;;5.82;;
6955;SDS011;50345;51.136;16.886;2024-02-21T11:53:54;9.67;;;5.80;;
6955;SDS011;50345;51.136;16.886;2024-02-21T11:56:19;9.27;;;5.30;;
6955;SDS011;50345;51.136;16.886;2024-02-21T11:58:46;7.97;;;6.23;;
6955;SDS011;50345;51.136;16.886;2024-02-21T12:01:15;6.45;;;5.72;;
6955;SDS011;50345;51.136;16.886;2024-02-21T12:03:42;9.40;;;4.83;;
6955;SDS011;50345;51.136;16.886;2024-02-21T12:06:14;9.60;;;4.28;;
6955;SDS011;50345;51.136;16.886;2024-02-21T12:08:44;7.20;;;5.28;;
6955;SDS011;50345;51.136;16.886;2024-02-21T12:11:20;7.10;;;5.38;;
6955;SDS011;50345;51.136;16.886;2024-02-21T12:14:09;8.25;;;5.30;;
6955;SDS011;50345;51.136;16.886;2024-02-21T12:16:34;11.15;;;5.82;;
6955;SDS011;50345;51.136;16.886;2024-02-21T12:19:02;8.70;;;5.65;;
6955;SDS011;50345;51.136;16.886;2024-02-21T12:21:31;11.23;;;6.28;;
6955;SDS011;50345;51.136;16.886;2024-02-21T12:23:58;8.40;;;5.70;;
6955;SDS011;50345;51.136;16.886;2024-02-21T12:26:24;8.07;;;5.38;;
6955;SDS011;50345;51.136;16.886;2024-02-21T12:28:50;9.18;;;5.20;;
6955;SDS011;50345;51.136;16.886;2024-02-21T12:31:16;5.90;;;4.73;;
6955;SDS011;50345;51.136;16.886;2024-02-21T12:33:42;10.00;;;6.70;;
6955;SDS011;50345;51.136;16.886;2024-02-21T12:36:09;8.55;;;4.60;;
6955;SDS011;50345;51.136;16.886;2024-02-21T12:38:35;7.10;;;5.10;;
6955;SDS011;50345;51.136;16.886;2024-02-21T12:41:01;7.28;;;4.88;;
6955;SDS011;50345;51.136;16.886;2024-02-21T12:43:27;6.87;;;5.00;;
6955;SDS011;50345;51.136;16.886;2024-02-21T12:45:52;7.13;;;5.30;;
6955;SDS011;50345;51.136;16.886;2024-02-21T12:48:18;6.60;;;4.73;;
6955;SDS011;50345;51.136;16.886;2024-02-21T12:50:50;10.30;;;5.30;;
6955;SDS011;50345;51.136;16.886;2024-02-21T12:53:19;6.57;;;4.45;;
6955;SDS011;50345;51.136;16.886;2024-02-21T12:55:46;8.85;;;5.47;;
6955;SDS011;50345;51.136;16.886;2024-02-21T12:58:13;5.30;;;4.80;;
6955;SDS011;50345;51.136;16.886;2024-02-21T13:00:39;8.18;;;5.60;;
6955;SDS011;50345;51.136;16.886;2024-02-21T13:03:05;6.25;;;5.55;;
6955;SDS011;50345;51.136;16.886;2024-02-21T13:05:31;7.40;;;5.43;;
6955;SDS011;50345;51.136;16.886;2024-02-21T13:07:57;7.47;;;5.37;;
6955;SDS011;50345;51.136;16.886;2024-02-21T13:10:23;5.82;;;4.15;;
6955;SDS011;50345;51.136;16.886;2024-02-21T13:12:49;11.30;;;6.70;;
6955;SDS011;50345;51.136;16.886;2024-02-21T13:15:14;10.93;;;8.53;;
6955;SDS011;50345;51.136;16.886;2024-02-21T13:17:42;9.02;;;7.45;;
6955;SDS011;50345;51.136;16.886;2024-02-21T13:20:11;11.68;;;6.90;;
6955;SDS011;50345;51.136;16.886;2024-02-21T13:22:38;9.45;;;6.55;;
6955;SDS011;50345;51.136;16.886;2024-02-21T13:25:04;9.47;;;6.20;;
6955;SDS011;50345;51.136;16.886;2024-02-21T13:27:32;8.95;;;5.65;;
6955;SDS011;50345;51.136;16.886;2024-02-21T13:29:58;6.20;;;5.60;;
6955;SDS011;50345;51.136;16.886;2024-02-21T13:32:25;8.98;;;5.95;;
6955;SDS011;50345;51.136;16.886;2024-02-21T13:34:50;7.77;;;6.23;;
6955;SDS011;50345;51.136;16.886;2024-02-21T13:37:17;7.88;;;6.32;;
6955;SDS011;50345;51.136;16.886;2024-02-21T13:39:43;13.00;;;7.30;;
6955;SDS011;50345;51.136;16.886;2024-02-21T13:42:09;9.80;;;5.38;;
6955;SDS011;50345;51.136;16.886;2024-02-21T13:44:34;8.07;;;5.40;;
6955;SDS011;50345;51.136;16.886;2024-02-21T13:47:01;15.20;;;6.25;;
6955;SDS011;50345;51.136;16.886;2024-02-21T13:49:27;7.97;;;6.30;;
6955;SDS011;50345;51.136;16.886;2024-02-21T13:51:53;8.95;;;5.88;;
6955;SDS011;50345;51.136;16.886;2024-02-21T13:54:19;15.07;;;6.85;;
6955;SDS011;50345;51.136;16.886;2024-02-21T13:56:46;13.50;;;6.22;;
6955;SDS011;50345;51.136;16.886;2024-02-21T13:59:12;14.10;;;7.87;;
6955;SDS011;50345;51.136;16.886;2024-02-21T14:01:41;8.13;;;6.72;;
6955;SDS011;50345;51.136;16.886;2024-02-21T14:04:07;11.35;;;6.65;;
6955;SDS011;50345;51.136;16.886;2024-02-21T14:06:33;8.30;;;6.27;;
6955;SDS011;50345;51.136;16.886;2024-02-21T14:08:59;8.67;;;5.60;;
6955;SDS011;50345;51.136;16.886;2024-02-21T14:11:24;8.77;;;6.53;;
6955;SDS011;50345;51.136;16.886;2024-02-21T14:13:51;8.93;;;7.00;;
6955;SDS011;50345;51.136;16.886;2024-02-21T14:16:17;9.67;;;5.80;;
6955;SDS011;50345;51.136;16.886;2024-02-21T14:18:43;7.73;;;5.80;;
6955;SDS011;50345;51.136;16.886;2024-02-21T14:21:09;6.00;;;5.40;;
6955;SDS011;50345;51.136;16.886;2024-02-21T14:23:38;9.10;;;5.93;;
6955;SDS011;50345;51.136;16.886;2024-02-21T14:26:04;5.80;;;4.87;;
6955;SDS011;50345;51.136;16.886;2024-02-21T14:28:30;6.70;;;4.90;;
6955;SDS011;50345;51.136;16.886;2024-02-21T14:30:55;6.97;;;5.50;;
6955;SDS011;50345;51.136;16.886;2024-02-21T14:33:26;8.07;;;6.93;;
6955;SDS011;50345;51.136;16.886;2024-02-21T14:35:52;10.05;;;5.40;;
6955;SDS011;50345;51.136;16.886;2024-02-21T14:38:18;9.20;;;6.90;;
6955;SDS011;50345;51.136;16.886;2024-02-21T14:40:44;14.02;;;12.18;;